createdAt,value
2023-01-17T00:01:33.836Z,4.63
2023-01-17T00:04:19.016Z,3.35
2023-01-17T00:07:04.601Z,2.90
2023-01-17T00:09:49.429Z,4.03
2023-01-17T00:12:15.951Z,4.07
2023-01-17T00:14:42.402Z,3.95
2023-01-17T00:17:08.860Z,3.88
2023-01-17T00:19:53.911Z,3.10
2023-01-17T00:22:42.248Z,3.05
2023-01-17T00:25:32.432Z,3.75
2023-01-17T00:27:59.397Z,3.08
2023-01-17T00:30:26.446Z,3.30
2023-01-17T00:32:52.862Z,2.58
2023-01-17T00:35:22.987Z,4.65
2023-01-17T00:37:52.635Z,3.50
2023-01-17T00:40:19.142Z,4.28
2023-01-17T00:42:47.665Z,4.28
2023-01-17T00:45:32.764Z,3.50
2023-01-17T00:48:17.984Z,4.75
2023-01-17T00:51:03.240Z,3.97
2023-01-17T00:53:48.224Z,2.63
2023-01-17T00:56:33.133Z,3.35
2023-01-17T00:59:18.025Z,2.75
2023-01-17T01:02:03.395Z,3.00
2023-01-17T01:04:48.360Z,3.60
2023-01-17T01:07:33.615Z,2.85
2023-01-17T01:10:18.404Z,6.57
2023-01-17T01:13:03.624Z,4.00
2023-01-17T01:15:50.323Z,4.75
2023-01-17T01:18:35.357Z,3.83
2023-01-17T01:21:22.520Z,4.65
2023-01-17T01:24:07.582Z,3.22
2023-01-17T01:26:52.486Z,7.65
2023-01-17T01:29:40.339Z,5.40
2023-01-17T01:34:52.008Z,2.45
2023-01-17T01:37:18.495Z,2.95
2023-01-17T01:39:44.949Z,3.60
2023-01-17T01:42:15.826Z,4.95
2023-01-17T01:44:50.127Z,5.78
2023-01-17T01:47:33.078Z,5.03
2023-01-17T01:50:02.386Z,4.05
2023-01-17T01:52:32.493Z,5.32
2023-01-17T01:55:04.153Z,3.38
2023-01-17T01:57:38.889Z,6.07
2023-01-17T02:00:11.677Z,2.92
2023-01-17T02:02:39.063Z,2.83
2023-01-17T02:05:06.236Z,3.85
2023-01-17T02:07:43.709Z,2.13
2023-01-17T02:10:10.931Z,6.80
2023-01-17T02:12:38.120Z,4.68
2023-01-17T02:15:07.595Z,3.42
2023-01-17T02:17:56.678Z,5.45
2023-01-17T02:20:47.689Z,7.00
2023-01-17T02:23:29.328Z,5.85
2023-01-17T02:26:20.826Z,3.85
2023-01-17T02:28:58.570Z,3.83
2023-01-17T02:31:35.326Z,2.60
2023-01-17T02:34:19.559Z,4.78
2023-01-17T02:36:56.218Z,4.90
2023-01-17T02:39:28.335Z,5.00
2023-01-17T02:42:01.005Z,3.78
2023-01-17T02:44:27.452Z,4.38
2023-01-17T02:46:57.117Z,9.23
2023-01-17T02:49:30.335Z,5.18
2023-01-17T02:52:19.749Z,3.00
2023-01-17T02:55:01.559Z,4.78
2023-01-17T02:57:44.435Z,5.90
2023-01-17T03:00:20.040Z,12.80
2023-01-17T03:03:02.349Z,3.25
2023-01-17T03:05:39.876Z,3.50
2023-01-17T03:08:06.612Z,3.42
2023-01-17T03:10:35.532Z,2.92
2023-01-17T03:13:03.432Z,2.55
2023-01-17T03:15:29.973Z,3.00
2023-01-17T03:18:00.618Z,4.35
2023-01-17T03:20:27.286Z,3.58
2023-01-17T03:25:20.197Z,2.47
2023-01-17T03:27:46.855Z,4.13
2023-01-17T03:32:40.385Z,3.90
2023-01-17T03:35:07.235Z,4.50
2023-01-17T03:37:33.788Z,3.85
2023-01-17T03:40:03.051Z,2.85
2023-01-17T03:42:29.697Z,2.83
2023-01-17T03:47:22.804Z,3.30
2023-01-17T03:49:49.392Z,7.20
2023-01-17T03:54:42.196Z,2.30
2023-01-17T03:57:08.753Z,5.07
2023-01-17T03:59:35.270Z,5.80
2023-01-17T04:02:01.915Z,5.43
2023-01-17T04:06:54.766Z,2.33
2023-01-17T04:09:21.291Z,2.55
2023-01-17T04:11:50.892Z,2.15
2023-01-17T04:14:17.771Z,2.08
2023-01-17T04:19:13.409Z,2.85
2023-01-17T04:21:39.992Z,1.67
2023-01-17T04:24:06.794Z,1.17
2023-01-17T04:26:33.224Z,5.82
2023-01-17T04:28:59.800Z,1.70
2023-01-17T04:31:26.353Z,4.35
2023-01-17T04:33:52.907Z,1.98
2023-01-17T04:36:19.390Z,1.35
2023-01-17T04:38:45.951Z,2.08
2023-01-17T04:41:12.617Z,2.30
2023-01-17T04:46:10.006Z,1.85
2023-01-17T04:48:37.166Z,1.15
2023-01-17T04:51:05.089Z,1.40
2023-01-17T04:53:32.163Z,1.70
2023-01-17T04:55:58.644Z,2.20
2023-01-17T04:58:25.275Z,1.23
2023-01-17T05:03:19.579Z,1.80
2023-01-17T05:05:46.497Z,2.42
2023-01-17T05:08:13.150Z,1.48
2023-01-17T05:13:06.320Z,4.22
2023-01-17T05:17:59.273Z,2.55
2023-01-17T05:20:27.883Z,3.75
2023-01-17T05:22:55.959Z,1.77
2023-01-17T05:25:24.784Z,0.98
2023-01-17T05:27:52.009Z,2.28
2023-01-17T05:30:19.068Z,3.10
2023-01-17T05:32:49.422Z,1.67
2023-01-17T05:35:17.191Z,1.27
2023-01-17T05:37:49.183Z,0.80
2023-01-17T05:40:17.456Z,1.08
2023-01-17T05:42:51.627Z,1.10
2023-01-17T05:45:19.617Z,3.15
2023-01-17T05:47:48.270Z,1.25
2023-01-17T05:50:18.086Z,2.15
2023-01-17T05:52:51.756Z,1.42
2023-01-17T05:55:18.735Z,1.52
2023-01-17T05:57:45.711Z,1.95
2023-01-17T06:00:13.496Z,1.83
2023-01-17T06:02:40.487Z,1.15
2023-01-17T06:05:07.681Z,2.00
2023-01-17T06:07:38.358Z,1.55
2023-01-17T06:10:05.769Z,1.85
2023-01-17T06:12:33.423Z,1.88
2023-01-17T06:14:59.895Z,1.63
2023-01-17T06:17:26.483Z,3.35
2023-01-17T06:19:52.969Z,1.35
2023-01-17T06:22:19.524Z,1.30
2023-01-17T06:24:46.002Z,2.67
2023-01-17T06:27:12.428Z,1.45
2023-01-17T06:29:39.172Z,1.55
2023-01-17T06:32:05.678Z,1.40
2023-01-17T06:34:32.129Z,2.00
2023-01-17T06:36:58.930Z,1.08
2023-01-17T06:39:25.638Z,1.40
2023-01-17T06:44:29.100Z,2.92
2023-01-17T06:46:55.635Z,3.17
2023-01-17T06:49:27.178Z,1.40
2023-01-17T06:51:53.720Z,2.90
2023-01-17T06:54:20.289Z,2.92
2023-01-17T06:59:13.121Z,1.80
2023-01-17T07:01:48.303Z,2.33
2023-01-17T07:04:15.243Z,2.83
2023-01-17T07:06:41.739Z,2.70
2023-01-17T07:09:08.201Z,2.58
2023-01-17T07:11:34.805Z,2.78
2023-01-17T07:16:27.822Z,1.88
2023-01-17T07:18:55.219Z,2.08
2023-01-17T07:21:26.840Z,3.38
2023-01-17T07:23:53.467Z,2.78
2023-01-17T07:26:22.290Z,2.80
2023-01-17T07:28:49.106Z,2.65
2023-01-17T07:31:22.776Z,2.15
2023-01-17T07:33:49.554Z,1.98
2023-01-17T07:36:16.305Z,3.83
2023-01-17T07:38:45.037Z,2.88
2023-01-17T07:41:11.722Z,1.85
2023-01-17T07:55:21.598Z,1.83
2023-01-17T07:57:26.119Z,4.03
2023-01-17T07:59:59.140Z,1.77
2023-01-17T08:02:36.298Z,2.00
2023-01-17T08:05:11.623Z,2.25
2023-01-17T08:07:38.698Z,5.60
2023-01-17T08:10:08.916Z,3.65
2023-01-17T08:12:38.081Z,1.00
2023-01-17T08:15:07.583Z,3.85
2023-01-17T08:17:34.486Z,2.05
2023-01-17T08:20:01.081Z,3.88
2023-01-17T08:22:33.340Z,2.10
2023-01-17T08:24:59.899Z,2.92
2023-01-17T08:27:26.453Z,3.22
2023-01-17T08:29:53.188Z,3.72
2023-01-17T08:34:48.041Z,2.53
2023-01-17T08:37:14.625Z,3.17
2023-01-17T08:39:41.288Z,2.78
2023-01-17T08:44:34.697Z,2.63
2023-01-17T08:47:01.502Z,1.85
2023-01-17T08:49:36.108Z,8.38
2023-01-17T08:52:02.642Z,3.30
2023-01-17T08:54:29.181Z,1.83
2023-01-17T08:56:55.764Z,3.70
2023-01-17T09:01:49.271Z,3.97
2023-01-17T09:04:15.857Z,1.92
2023-01-17T09:06:45.409Z,2.08
2023-01-17T09:09:12.136Z,1.10
2023-01-17T09:14:05.264Z,1.65
2023-01-17T09:16:33.249Z,7.75
2023-01-17T09:18:59.912Z,2.85
2023-01-17T09:23:58.680Z,0.90
2023-01-17T09:26:29.865Z,1.85
2023-01-17T09:28:56.436Z,4.80
2023-01-17T09:31:23.867Z,2.50
2023-01-17T09:33:51.889Z,1.90
2023-01-17T09:36:18.730Z,1.20
2023-01-17T09:38:46.712Z,1.08
2023-01-17T09:41:51.290Z,2.03
2023-01-17T09:44:31.218Z,1.50
2023-01-17T09:47:11.189Z,1.15
2023-01-17T09:49:43.318Z,0.90
2023-01-17T09:52:14.510Z,1.15
2023-01-17T09:54:43.772Z,1.52
2023-01-17T09:57:30.654Z,1.15
2023-01-17T10:00:16.749Z,4.90
2023-01-17T10:03:20.866Z,3.63
2023-01-17T10:05:59.516Z,3.28
2023-01-17T10:08:48.633Z,4.65
2023-01-17T10:11:52.453Z,1.63
2023-01-17T10:14:37.782Z,1.20
2023-01-17T10:17:53.579Z,0.70
2023-01-17T10:20:46.502Z,0.90
2023-01-17T10:23:42.154Z,0.82
2023-01-17T10:26:16.631Z,0.57
2023-01-17T10:28:48.707Z,1.38
2023-01-17T10:31:31.153Z,1.83
2023-01-17T10:34:05.217Z,0.75
2023-01-17T10:36:38.615Z,1.60
2023-01-17T10:39:19.358Z,1.45
2023-01-17T10:41:55.196Z,3.22
2023-01-17T10:44:35.673Z,1.42
2023-01-17T10:47:11.041Z,2.00
2023-01-17T10:49:41.242Z,0.93
2023-01-17T10:52:36.852Z,3.30
2023-01-17T10:55:30.250Z,0.73
2023-01-17T10:57:58.371Z,0.85
2023-01-17T11:00:44.038Z,0.95
2023-01-17T11:03:16.550Z,1.35
2023-01-17T11:06:23.671Z,0.70
2023-01-17T11:08:56.521Z,5.43
2023-01-17T11:11:32.025Z,2.70
2023-01-17T11:14:14.184Z,0.60
2023-01-17T11:16:40.825Z,3.97
2023-01-17T11:21:33.704Z,2.90
2023-01-17T11:24:09.988Z,2.92
2023-01-17T11:26:38.682Z,2.50
2023-01-17T11:29:14.225Z,5.15
2023-01-17T11:31:40.684Z,1.95
2023-01-17T11:34:18.485Z,0.70
2023-01-17T11:36:44.956Z,2.00
2023-01-17T11:39:17.454Z,1.40
2023-01-17T11:41:46.001Z,0.85
2023-01-17T11:44:30.850Z,3.55
2023-01-17T11:47:12.735Z,2.35
2023-01-17T11:49:45.028Z,0.77
2023-01-17T11:52:25.319Z,1.23
2023-01-17T11:54:54.401Z,1.10
2023-01-17T11:57:31.216Z,0.80
2023-01-17T12:00:22.358Z,1.42
2023-01-17T12:03:15.335Z,5.47
2023-01-17T12:06:00.045Z,5.47
2023-01-17T12:08:52.934Z,1.58
2023-01-17T12:12:13.451Z,2.60
2023-01-17T12:15:09.764Z,2.63
2023-01-17T12:17:50.256Z,5.82
2023-01-17T12:20:46.597Z,2.17
2023-01-17T12:23:24.357Z,4.55
2023-01-17T12:26:43.033Z,4.57
2023-01-17T12:29:24.789Z,3.33
2023-01-17T12:32:12.940Z,3.67
2023-01-17T12:38:35.851Z,4.10
2023-01-17T12:41:10.383Z,1.58
2023-01-17T12:43:54.160Z,4.70
2023-01-17T12:46:34.488Z,3.80
2023-01-17T12:49:22.835Z,1.48
2023-01-17T12:51:57.366Z,5.45
2023-01-17T12:54:36.837Z,4.20
2023-01-17T12:57:14.010Z,2.30
2023-01-17T12:59:48.146Z,0.75
2023-01-17T13:02:47.470Z,6.47
2023-01-17T13:05:36.108Z,4.95
2023-01-17T13:08:12.925Z,5.43
2023-01-17T13:10:51.161Z,3.92
2023-01-17T13:13:24.246Z,4.25
2023-01-17T13:15:57.664Z,7.22
2023-01-17T13:18:29.957Z,6.88
2023-01-17T13:21:21.967Z,6.55
2023-01-17T13:23:59.205Z,6.18
2023-01-17T13:29:20.453Z,3.25
2023-01-17T13:32:20.878Z,5.85
2023-01-17T13:34:50.858Z,6.18
2023-01-17T13:37:29.999Z,3.15
2023-01-17T13:40:15.209Z,5.38
2023-01-17T13:42:50.800Z,3.47
2023-01-17T13:45:37.856Z,4.88
2023-01-17T13:48:28.751Z,6.82
2023-01-17T13:50:58.170Z,8.48
2023-01-17T13:53:42.835Z,7.22
2023-01-17T13:56:18.634Z,5.82
2023-01-17T13:58:47.238Z,2.80
2023-01-17T14:01:13.783Z,6.03
2023-01-17T14:03:48.594Z,8.23
2023-01-17T14:06:30.415Z,5.30
2023-01-17T14:09:19.029Z,7.00
2023-01-17T14:12:26.396Z,5.25
2023-01-17T14:14:58.804Z,2.35
2023-01-17T14:17:47.699Z,7.65
2023-01-17T14:20:19.070Z,2.53
2023-01-17T14:22:53.628Z,2.05
2023-01-17T14:25:28.090Z,8.35
2023-01-17T14:28:05.231Z,3.67
2023-01-17T14:30:31.775Z,1.90
2023-01-17T14:33:01.424Z,4.00
2023-01-17T14:35:48.802Z,7.50
2023-01-17T14:38:24.280Z,9.20
2023-01-17T14:40:55.557Z,3.28
2023-01-17T14:43:24.984Z,5.75
2023-01-17T14:46:04.216Z,4.68
2023-01-17T14:48:31.672Z,3.03
2023-01-17T14:51:01.900Z,16.17
2023-01-17T14:53:30.694Z,6.85
2023-01-17T14:56:05.157Z,10.23
2023-01-17T14:58:36.846Z,4.55
2023-01-17T15:01:12.630Z,6.80
2023-01-17T15:03:58.240Z,7.18
2023-01-17T15:06:28.027Z,8.73
2023-01-17T15:08:54.647Z,6.07
2023-01-17T15:13:57.368Z,7.20
2023-01-17T15:16:29.944Z,3.22
2023-01-17T15:18:57.431Z,10.60
2023-01-17T15:21:30.020Z,2.72
2023-01-17T15:23:58.713Z,5.43
2023-01-17T15:26:28.387Z,7.38
2023-01-17T15:32:55.721Z,5.65
2023-01-17T15:35:22.460Z,6.80
2023-01-17T15:41:27.029Z,4.18
2023-01-17T15:43:57.635Z,6.90
2023-01-17T15:46:45.644Z,4.82
2023-01-17T15:49:23.569Z,3.58
2023-01-17T15:51:56.469Z,8.27
2023-01-17T15:54:29.036Z,8.98
2023-01-17T15:57:19.436Z,3.05
2023-01-17T16:00:07.744Z,1.73
2023-01-17T16:02:46.420Z,6.03
2023-01-17T16:05:22.595Z,4.45
2023-01-17T16:07:50.847Z,3.28
2023-01-17T16:10:21.437Z,4.13
2023-01-17T16:12:50.584Z,2.58
2023-01-17T16:15:18.624Z,3.90
2023-01-17T16:17:51.353Z,4.18
2023-01-17T16:20:24.977Z,6.40
2023-01-17T16:22:54.131Z,5.05
2023-01-17T16:25:25.302Z,10.18
2023-01-17T16:27:52.592Z,1.95
2023-01-17T16:30:21.609Z,10.70
2023-01-17T16:32:49.347Z,5.15
2023-01-17T16:35:19.032Z,3.22
2023-01-17T16:37:49.283Z,11.35
2023-01-17T16:40:16.057Z,4.88
2023-01-17T16:45:14.306Z,3.30
2023-01-17T16:47:42.673Z,7.63
2023-01-17T16:50:11.343Z,2.97
2023-01-17T16:52:38.117Z,3.17
2023-01-17T16:55:12.127Z,8.27
2023-01-17T16:57:39.108Z,5.18
2023-01-17T17:00:07.088Z,5.63
2023-01-17T17:02:33.803Z,13.18
2023-01-17T17:05:00.458Z,6.28
2023-01-17T17:09:53.302Z,8.38
2023-01-17T17:12:19.737Z,8.02
2023-01-17T17:14:46.159Z,4.68
2023-01-17T17:17:12.615Z,4.78
2023-01-17T17:19:39.073Z,6.93
2023-01-17T17:22:06.693Z,5.30
2023-01-17T17:24:33.363Z,8.27
2023-01-17T17:29:26.488Z,7.07
2023-01-17T17:34:27.672Z,5.82
2023-01-17T17:36:54.066Z,6.78
2023-01-17T17:39:20.658Z,4.47
2023-01-17T17:44:13.526Z,5.43
2023-01-17T17:46:40.279Z,10.60
2023-01-17T17:49:06.826Z,7.63
2023-01-17T17:54:01.863Z,9.32
2023-01-17T17:56:30.589Z,8.13
2023-01-17T17:58:58.531Z,7.88
2023-01-17T18:01:25.384Z,10.52
2023-01-17T18:03:53.720Z,8.35
2023-01-17T18:06:20.924Z,5.97
2023-01-17T18:08:47.722Z,11.65
2023-01-17T18:11:18.556Z,8.05
2023-01-17T18:13:47.837Z,10.95
2023-01-17T18:16:16.470Z,4.93
2023-01-17T18:18:49.297Z,11.30
2023-01-17T18:21:25.216Z,7.60
2023-01-17T18:23:57.748Z,10.48
2023-01-17T18:26:27.973Z,5.80
2023-01-17T18:28:55.882Z,8.55
2023-01-17T18:31:30.116Z,12.35
2023-01-17T18:33:59.207Z,12.20
2023-01-17T18:36:28.707Z,11.07
2023-01-17T18:38:55.357Z,11.57
2023-01-17T18:41:29.353Z,14.40
2023-01-17T18:43:56.131Z,12.73
2023-01-17T18:46:23.245Z,11.35
2023-01-17T18:48:49.671Z,11.95
2023-01-17T18:51:18.916Z,11.77
2023-01-17T18:53:46.434Z,11.13
2023-01-17T18:56:15.162Z,11.90
2023-01-17T18:58:44.799Z,11.90
2023-01-17T19:01:23.390Z,11.43
2023-01-17T19:03:52.820Z,14.27
2023-01-17T19:06:28.469Z,14.98
2023-01-17T19:08:54.885Z,11.77
2023-01-17T19:11:22.977Z,9.05
2023-01-17T19:13:50.356Z,16.75
2023-01-17T19:16:20.036Z,11.25
2023-01-17T19:18:47.133Z,12.30
2023-01-17T19:21:16.400Z,11.73
2023-01-17T19:23:46.161Z,9.27
2023-01-17T19:26:14.124Z,13.93
2023-01-17T19:28:42.288Z,12.13
2023-01-17T19:31:23.504Z,12.75
2023-01-17T19:33:52.204Z,8.95
2023-01-17T19:36:21.809Z,6.90
2023-01-17T19:39:03.033Z,15.45
2023-01-17T19:41:30.783Z,10.35
2023-01-17T19:43:59.405Z,14.55
2023-01-17T19:46:27.328Z,10.65
2023-01-17T19:48:55.931Z,10.98
2023-01-17T19:51:23.344Z,13.95
2023-01-17T19:53:49.841Z,14.02
2023-01-17T19:58:49.908Z,12.07
2023-01-17T20:01:22.122Z,18.30
2023-01-17T20:03:49.874Z,11.10
2023-01-17T20:06:19.980Z,7.82
2023-01-17T20:08:46.609Z,16.55
2023-01-17T20:11:16.310Z,15.80
2023-01-17T20:13:46.179Z,12.15
2023-01-17T20:16:14.526Z,11.23
2023-01-17T20:19:03.104Z,13.38
2023-01-17T20:21:31.328Z,9.13
2023-01-17T20:24:00.047Z,9.73
2023-01-17T20:26:35.997Z,10.63
2023-01-17T20:29:07.401Z,10.93
2023-01-17T20:31:38.090Z,10.98
2023-01-17T20:34:05.419Z,12.80
2023-01-17T20:36:33.196Z,9.52
2023-01-17T20:39:00.957Z,14.85
2023-01-17T20:41:32.855Z,6.43
2023-01-17T20:44:01.062Z,12.45
2023-01-17T20:46:32.942Z,10.18
2023-01-17T20:49:01.221Z,12.95
2023-01-17T20:51:29.346Z,9.07
2023-01-17T20:54:26.466Z,13.90
2023-01-17T20:56:53.125Z,15.18
2023-01-17T20:59:24.289Z,10.82
2023-01-17T21:01:54.342Z,11.77
2023-01-17T21:04:26.024Z,7.47
2023-01-17T21:06:53.442Z,9.70
2023-01-17T21:09:21.481Z,18.77
2023-01-17T21:11:48.785Z,11.48
2023-01-17T21:14:16.329Z,10.73
2023-01-17T21:16:43.608Z,12.90
2023-01-17T21:19:14.319Z,9.77
2023-01-17T21:21:40.782Z,14.07
2023-01-17T21:26:34.221Z,11.18
2023-01-17T21:29:02.075Z,13.70
2023-01-17T21:31:33.475Z,9.90
2023-01-17T21:34:02.684Z,12.73
2023-01-17T21:36:33.227Z,11.35
2023-01-17T21:39:04.845Z,13.55
2023-01-17T21:41:37.765Z,14.32
2023-01-17T21:44:10.125Z,15.50
2023-01-17T21:46:38.739Z,12.00
2023-01-17T21:49:08.536Z,17.45
2023-01-17T21:51:53.213Z,10.70
2023-01-17T21:54:40.691Z,15.82
2023-01-17T21:57:28.236Z,11.90
2023-01-17T21:59:54.840Z,15.00
2023-01-17T22:02:21.714Z,18.17
2023-01-17T22:04:48.247Z,23.90
2023-01-17T22:09:41.045Z,16.30
2023-01-17T22:12:07.465Z,14.38
2023-01-17T22:14:34.195Z,13.35
2023-01-17T22:17:00.723Z,17.17
2023-01-17T22:21:54.276Z,16.92
2023-01-17T22:24:21.723Z,22.17
2023-01-17T22:26:48.170Z,25.02
2023-01-17T22:31:45.607Z,18.60
2023-01-17T22:34:14.058Z,17.13
2023-01-17T22:36:40.516Z,19.27
2023-01-17T22:41:35.141Z,28.15
2023-01-17T22:44:02.399Z,17.88
2023-01-17T22:46:31.418Z,15.25
2023-01-17T22:48:58.317Z,16.58
2023-01-17T22:51:27.000Z,23.50
2023-01-17T22:53:56.258Z,16.90
2023-01-17T22:56:26.590Z,21.67
2023-01-17T22:58:53.516Z,25.33
2023-01-17T23:01:32.631Z,24.48
2023-01-17T23:04:01.659Z,22.92
2023-01-17T23:06:30.535Z,24.45
2023-01-17T23:08:59.096Z,24.10
2023-01-17T23:11:40.984Z,31.35
2023-01-17T23:14:53.901Z,24.83
2023-01-17T23:17:40.559Z,26.30
2023-01-17T23:20:13.580Z,29.73
2023-01-17T23:22:40.035Z,34.72
2023-01-17T23:28:04.326Z,34.00
2023-01-17T23:30:39.148Z,33.17
2023-01-17T23:33:07.982Z,27.30
2023-01-17T23:35:41.463Z,27.40
2023-01-17T23:38:29.003Z,28.98
2023-01-17T23:41:26.315Z,34.58
2023-01-17T23:43:54.088Z,31.63
2023-01-17T23:46:21.248Z,39.70
2023-01-17T23:48:47.954Z,38.20
2023-01-17T23:51:14.515Z,36.38
2023-01-17T23:53:41.124Z,32.08
2023-01-17T23:56:16.285Z,32.60
2023-01-17T23:58:42.940Z,40.92
